Time;durP1;ratioP1;P1;durP2;ratioP2;P2;SDS_P1;SDS_P2;PMS_P1;PMS_P2;Temp;Humidity;BMP_temperature;BMP_pressure;BME280_temperature;BME280_humidity;BME280_pressure;Samples;Min_cycle;Max_cycle;Signal;HPM_P1;HPM_P2
2021/12/12 00:00:04;;;;;;;29.17;13.67;;;;;;;2.86;99.17;102021.00;5054149;28;20070;-77
2021/12/12 00:02:45;;;;;;;30.95;13.43;;;;;;;3.06;98.89;102054.78;5053774;28;20758;-76
2021/12/12 00:05:15;;;;;;;27.88;13.73;;;;;;;3.24;98.95;102075.81;5053985;28;20025;-74
2021/12/12 00:07:41;;;;;;;24.98;12.98;;;;;;;3.15;99.02;102062.31;5053750;28;20464;-74
2021/12/12 00:10:22;;;;;;;31.95;13.80;;;;;;;3.24;98.70;102068.97;5053674;28;20064;-79
2021/12/12 00:12:54;;;;;;;24.85;11.73;;;;;;;3.25;98.63;102067.31;5053784;28;20132;-78
2021/12/12 00:15:20;;;;;;;23.00;12.73;;;;;;;3.17;98.97;102052.09;5053474;28;20024;-77
2021/12/12 00:17:47;;;;;;;29.15;12.10;;;;;;;3.32;98.92;102076.56;5053598;28;20134;-74
2021/12/12 00:20:15;;;;;;;25.33;11.80;;;;;;;3.33;98.86;102063.75;5053570;28;20028;-79
2021/12/12 00:22:41;;;;;;;24.05;11.27;;;;;;;3.23;98.46;102033.28;5053902;28;20460;-74
2021/12/12 00:25:08;;;;;;;27.98;12.05;;;;;;;3.38;98.65;102058.63;5053673;28;20028;-75
2021/12/12 00:27:34;;;;;;;22.65;12.05;;;;;;;3.35;98.43;102045.91;5053388;28;20032;-76
2021/12/12 00:30:03;;;;;;;26.75;11.00;;;;;;;3.37;98.39;102045.00;5053232;28;20036;-73
2021/12/12 00:32:31;;;;;;;23.58;11.55;;;;;;;3.27;98.20;102019.63;5053358;28;20029;-74
2021/12/12 00:35:00;;;;;;;24.33;10.70;;;;;;;3.45;97.98;102040.63;5053576;28;20047;-76
2021/12/12 00:37:28;;;;;;;20.63;10.48;;;;;;;3.47;98.36;102055.09;5053246;28;20414;-79
2021/12/12 00:39:57;;;;;;;22.60;12.18;;;;;;;3.48;97.89;102046.56;5053311;28;20052;-76
2021/12/12 00:42:26;;;;;;;23.95;10.85;;;;;;;3.50;98.06;102043.13;5053274;28;20025;-77
2021/12/12 00:44:57;;;;;;;22.92;10.07;;;;;;;3.50;98.13;102048.22;5053169;28;20025;-80
2021/12/12 00:47:23;;;;;;;22.93;9.93;;;;;;;3.37;97.91;102016.91;5053210;28;20021;-76
2021/12/12 00:49:49;;;;;;;27.73;10.43;;;;;;;3.53;98.34;102042.22;5052939;28;20275;-76
2021/12/12 00:52:18;;;;;;;28.55;10.50;;;;;;;3.55;98.04;102043.06;5053115;28;20028;-77
2021/12/12 00:54:48;;;;;;;24.63;10.30;;;;;;;3.57;98.33;102041.31;5053066;28;20024;-75
2021/12/12 00:57:17;;;;;;;23.65;10.82;;;;;;;3.57;98.28;102037.06;5051793;28;20473;-81
2021/12/12 00:59:44;;;;;;;21.23;9.75;;;;;;;3.57;98.25;102031.13;5052375;28;20423;-78
2021/12/12 01:02:20;;;;;;;21.63;9.20;;;;;;;3.58;98.65;102028.53;5051748;28;20067;-76
2021/12/12 01:04:49;;;;;;;28.95;10.27;;;;;;;3.44;98.91;101999.78;5052838;28;20469;-81
2021/12/12 01:07:20;;;;;;;22.90;9.88;;;;;;;3.32;98.74;101977.81;5052767;28;20029;-82
2021/12/12 01:09:51;;;;;;;22.98;10.07;;;;;;;3.55;98.90;102023.47;5052714;28;20031;-75
2021/12/12 01:12:27;;;;;;;25.20;10.85;;;;;;;3.28;99.07;101981.31;5052518;28;20056;-77
2021/12/12 01:14:59;;;;;;;31.15;11.20;;;;;;;3.54;98.65;102021.78;5052865;28;20052;-74
2021/12/12 01:17:31;;;;;;;23.65;10.32;;;;;;;3.55;99.29;102027.75;5052768;28;20608;-74
2021/12/12 01:20:00;;;;;;;29.70;10.38;;;;;;;3.45;99.42;102009.16;5052695;28;20052;-73
2021/12/12 01:22:34;;;;;;;23.70;10.23;;;;;;;3.46;99.45;102013.41;5050986;28;20052;-77
2021/12/12 01:25:06;;;;;;;23.55;9.55;;;;;;;3.59;99.48;102027.66;5052710;28;20025;-82
2021/12/12 01:27:32;;;;;;;24.98;9.75;;;;;;;3.51;99.37;102013.31;5051153;28;20469;-76
2021/12/12 01:29:57;;;;;;;27.48;10.68;;;;;;;3.48;98.98;102001.44;5052751;28;20027;-82
2021/12/12 01:32:28;;;;;;;20.88;9.57;;;;;;;3.65;99.15;102024.19;5052676;28;20119;-79
2021/12/12 01:34:56;;;;;;;31.20;11.13;;;;;;;3.67;99.06;102025.00;5052576;28;20020;-79
2021/12/12 01:39:55;;;;;;;24.35;11.10;;;;;;;3.56;99.17;102007.28;5052657;28;20112;-75
2021/12/12 01:42:29;;;;;;;28.17;10.45;;;;;;;3.68;99.01;102019.84;5052453;28;20032;-81
2021/12/12 01:45:08;;;;;;;27.23;10.57;;;;;;;3.55;99.06;102002.19;5052529;28;20079;-77
2021/12/12 01:47:51;;;;;;;24.98;10.48;;;;;;;3.70;99.19;102020.69;5052422;28;20112;-76
2021/12/12 01:50:25;;;;;;;25.50;10.30;;;;;;;3.72;99.25;102024.03;5052279;28;20021;-81
2021/12/12 01:52:52;;;;;;;27.52;10.95;;;;;;;3.57;99.56;102001.31;5052439;28;20021;-82
2021/12/12 01:55:24;;;;;;;27.48;10.30;;;;;;;3.73;99.56;102028.28;5052654;28;20032;-75
2021/12/12 01:57:52;;;;;;;28.60;10.45;;;;;;;3.72;99.40;102030.88;5052449;28;20028;-77
2021/12/12 02:00:27;;;;;;;29.42;10.35;;;;;;;3.72;99.97;102029.16;5052293;28;20025;-79
2021/12/12 02:02:53;;;;;;;33.35;11.25;;;;;;;3.51;100.00;101983.50;5051116;28;20032;-79
2021/12/12 02:05:20;;;;;;;25.00;10.70;;;;;;;3.69;100.00;102024.09;5052315;28;20349;-78
2021/12/12 02:07:54;;;;;;;24.10;10.50;;;;;;;3.69;100.00;102024.09;5052282;28;20365;-82
2021/12/12 02:10:24;;;;;;;25.17;10.65;;;;;;;3.68;100.00;102022.41;5052295;28;20053;-81
2021/12/12 02:12:50;;;;;;;25.48;10.02;;;;;;;3.69;100.00;102018.16;5055416;28;20124;-82
2021/12/12 02:15:17;;;;;;;29.67;10.60;;;;;;;3.71;100.00;102013.84;5054978;28;20103;-81
2021/12/12 02:17:47;;;;;;;29.23;12.73;;;;;;;3.70;100.00;102013.00;5056254;28;20032;-78
2021/12/12 02:20:34;;;;;;;25.30;11.07;;;;;;;3.72;100.00;102011.28;5055941;28;20029;-74
2021/12/12 02:23:27;;;;;;;25.67;11.13;;;;;;;3.59;100.00;101989.34;5055950;28;20029;-80
2021/12/12 02:37:00;;;;;;;23.92;10.23;;;;;;;3.60;100.00;101974.88;5055597;28;20091;-81
2021/12/12 02:39:25;;;;;;;23.38;11.68;;;;;;;3.62;100.00;101978.22;5055575;28;20021;-76
2021/12/12 02:41:55;;;;;;;25.67;11.25;;;;;;;3.74;100.00;101988.28;5055669;28;20054;-75
2021/12/12 02:44:27;;;;;;;24.08;10.45;;;;;;;3.73;100.00;101977.19;5055397;28;20029;-77
2021/12/12 02:46:54;;;;;;;29.95;10.88;;;;;;;3.78;100.00;101984.78;5055499;28;20028;-75
2021/12/12 02:49:42;;;;;;;29.70;10.18;;;;;;;3.77;100.00;101983.13;5055335;28;20077;-80
2021/12/12 02:52:13;;;;;;;27.05;9.77;;;;;;;3.58;100.00;101948.50;5055746;28;20021;-74
2021/12/12 02:54:39;;;;;;;29.58;10.20;;;;;;;3.79;100.00;101976.25;5055529;28;20017;-75
2021/12/12 02:57:07;;;;;;;27.50;10.48;;;;;;;3.80;100.00;101974.53;5055204;28;20029;-76
2021/12/12 02:59:34;;;;;;;25.15;9.43;;;;;;;3.80;100.00;101975.38;5055334;28;20036;-77
2021/12/12 03:02:08;;;;;;;25.63;10.15;;;;;;;3.77;100.00;101970.34;5055424;28;20025;-74
2021/12/12 03:04:34;;;;;;;25.92;9.80;;;;;;;3.82;100.00;101976.19;5055014;28;20036;-77
2021/12/12 03:07:02;;;;;;;32.70;10.95;;;;;;;3.84;100.00;101976.19;5053840;28;20025;-75
2021/12/12 03:09:35;;;;;;;29.88;10.02;;;;;;;3.86;100.00;101984.69;5055114;28;20031;-80
2021/12/12 03:12:16;;;;;;;27.90;11.18;;;;;;;3.56;100.00;101927.28;5054925;28;20056;-80
2021/12/12 03:14:42;;;;;;;27.00;10.77;;;;;;;3.85;100.00;101965.94;5053533;28;20036;-81
2021/12/12 03:17:18;;;;;;;26.95;11.73;;;;;;;3.89;100.00;101976.94;5055182;28;20029;-74
2021/12/12 03:19:47;;;;;;;32.00;10.63;;;;;;;3.68;100.00;101937.28;5054695;28;20029;-75
2021/12/12 03:22:15;;;;;;;27.08;11.23;;;;;;;3.91;100.00;101963.28;5054490;28;20024;-75
2021/12/12 03:24:40;;;;;;;29.38;11.45;;;;;;;3.93;100.00;101960.69;5054321;28;20027;-76
2021/12/12 03:27:07;;;;;;;26.42;12.35;;;;;;;3.93;100.00;101959.00;5054692;28;20123;-74
2021/12/12 03:29:33;;;;;;;27.40;11.18;;;;;;;3.96;100.00;101947.88;5054826;28;20431;-77
2021/12/12 03:32:03;;;;;;;30.83;11.68;;;;;;;3.92;100.00;101926.63;5053594;28;20442;-76
2021/12/12 03:34:36;;;;;;;27.88;12.20;;;;;;;3.99;100.00;101938.44;5054685;28;20021;-74
2021/12/12 03:37:04;;;;;;;26.05;12.25;;;;;;;4.01;100.00;101935.84;5054376;28;20058;-75
2021/12/12 03:39:34;;;;;;;28.70;12.05;;;;;;;3.99;100.00;101933.31;5054533;28;20021;-77
2021/12/12 03:42:05;;;;;;;26.40;12.65;;;;;;;4.05;100.00;101934.94;5054696;28;20032;-77
2021/12/12 03:44:34;;;;;;;36.67;12.77;;;;;;;3.76;100.00;101888.63;5054581;28;20021;-80
2021/12/12 03:47:10;;;;;;;30.00;11.90;;;;;;;4.08;100.00;101939.97;5054327;28;20124;-79
2021/12/12 03:49:37;;;;;;;31.63;13.43;;;;;;;4.10;100.00;101939.94;5054269;28;20052;-80
2021/12/12 03:52:08;;;;;;;25.33;13.32;;;;;;;4.06;100.00;101934.06;5054191;28;20036;-77
2021/12/12 03:54:34;;;;;;;33.08;12.80;;;;;;;3.90;100.00;101901.97;5054450;28;20029;-78
2021/12/12 03:56:59;;;;;;;29.33;13.32;;;;;;;4.12;100.00;101940.75;5054510;28;20031;-77
2021/12/12 03:59:25;;;;;;;31.45;14.57;;;;;;;4.14;100.00;101945.00;5054321;28;20384;-78
2021/12/12 04:01:53;;;;;;;30.85;13.90;;;;;;;4.15;100.00;101946.69;5053982;28;20025;-76
2021/12/12 04:04:24;;;;;;;31.13;14.75;;;;;;;4.08;100.00;101923.81;5053940;28;20020;-79
2021/12/12 04:06:52;;;;;;;31.02;14.73;;;;;;;4.18;100.00;101940.66;5054001;28;20029;-79
2021/12/12 04:09:19;;;;;;;27.60;14.48;;;;;;;4.19;100.00;101944.91;5054058;28;20369;-78
2021/12/12 04:12:00;;;;;;;29.90;14.68;;;;;;;4.20;100.00;101941.47;5053807;28;20480;-77
2021/12/12 04:14:27;;;;;;;30.40;15.10;;;;;;;4.18;100.00;101944.06;5053870;28;20033;-76
2021/12/12 04:16:56;;;;;;;27.70;15.15;;;;;;;4.24;100.00;101954.19;5053803;28;20060;-77
2021/12/12 04:19:22;;;;;;;29.33;14.48;;;;;;;4.14;100.00;101931.38;5053862;28;20025;-78
2021/12/12 04:21:47;;;;;;;28.42;14.95;;;;;;;4.28;100.00;101952.41;5053595;28;20029;-79
2021/12/12 04:24:29;;;;;;;26.13;14.48;;;;;;;4.08;100.00;101911.88;5053718;28;20029;-78
2021/12/12 04:26:55;;;;;;;24.48;12.90;;;;;;;4.16;100.00;101915.13;5053707;28;20114;-78
2021/12/12 04:29:32;;;;;;;23.88;12.93;;;;;;;4.37;100.00;101953.94;5053396;28;20017;-79
2021/12/12 04:32:06;;;;;;;26.58;12.30;;;;;;;4.36;100.00;101953.09;5053869;28;20100;-80
2021/12/12 04:34:35;;;;;;;24.50;12.25;;;;;;;4.36;100.00;101947.13;5053370;28;20523;-77
2021/12/12 04:37:06;;;;;;;25.27;12.35;;;;;;;4.38;100.00;101943.66;5053206;28;20117;-77
2021/12/12 04:39:38;;;;;;;23.63;12.10;;;;;;;4.40;100.00;101941.91;5053476;28;20079;-75
2021/12/12 04:42:12;;;;;;;21.63;11.40;;;;;;;4.40;100.00;101951.31;5053157;28;20061;-75
2021/12/12 04:44:40;;;;;;;18.65;11.10;;;;;;;4.41;100.00;101950.44;5053309;28;20051;-77
2021/12/12 04:50:31;;;;;;;20.75;12.15;;;;;;;4.36;100.00;101950.53;5053565;28;20079;-78
2021/12/12 04:53:00;;;;;;;18.05;11.20;;;;;;;4.35;100.00;101936.06;5053102;28;20082;-76
2021/12/12 04:55:31;;;;;;;21.02;11.52;;;;;;;4.47;100.00;101960.56;5053419;28;20033;-76
2021/12/12 04:58:08;;;;;;;19.67;10.90;;;;;;;4.48;100.00;101955.41;5053068;28;20032;-77
2021/12/12 05:00:40;;;;;;;20.20;11.68;;;;;;;4.46;100.00;101940.97;5053053;28;20295;-77
2021/12/12 05:03:28;;;;;;;19.65;11.68;;;;;;;4.51;100.00;101951.94;5052984;28;20032;-81
2021/12/12 05:06:07;;;;;;;25.55;12.65;;;;;;;4.54;100.00;101962.13;5051828;28;20025;-76
2021/12/12 05:08:41;;;;;;;20.67;10.75;;;;;;;4.53;100.00;101963.84;5052919;28;20432;-76
2021/12/12 05:11:13;;;;;;;19.63;11.30;;;;;;;4.54;100.00;101969.81;5052525;28;20037;-77
2021/12/12 05:13:49;;;;;;;18.70;11.55;;;;;;;4.55;100.00;101972.31;5052725;28;20056;-79
2021/12/12 05:16:22;;;;;;;20.83;11.48;;;;;;;4.41;100.00;101953.00;5052913;28;20820;-78
2021/12/12 05:18:51;;;;;;;19.67;11.50;;;;;;;4.59;100.00;101975.66;5052947;28;20384;-77
2021/12/12 05:21:31;;;;;;;18.58;11.02;;;;;;;4.60;100.00;101982.47;5052669;28;20465;-77
2021/12/12 05:23:59;;;;;;;20.58;11.60;;;;;;;4.61;100.00;101974.75;5052672;28;20021;-78
2021/12/12 05:26:36;;;;;;;18.58;11.48;;;;;;;4.53;100.00;101955.34;5052533;28;20082;-76
2021/12/12 05:29:04;;;;;;;21.35;11.27;;;;;;;4.53;100.00;101951.06;5052802;28;20044;-76
2021/12/12 05:31:33;;;;;;;24.20;11.85;;;;;;;4.61;100.00;101958.56;5052670;28;20117;-78
2021/12/12 05:33:59;;;;;;;19.40;10.52;;;;;;;4.52;100.00;101944.25;5052657;28;20057;-78
2021/12/12 05:36:26;;;;;;;19.55;12.02;;;;;;;4.71;100.00;101975.41;5052505;28;20017;-76
2021/12/12 05:38:53;;;;;;;18.35;10.95;;;;;;;4.75;100.00;101979.59;5052272;28;20033;-79
2021/12/12 05:41:20;;;;;;;20.05;11.30;;;;;;;4.75;100.00;101982.16;5052752;28;20017;-79
2021/12/12 05:43:48;;;;;;;19.60;11.70;;;;;;;4.74;100.00;101977.94;5052668;28;20121;-80
2021/12/12 05:46:15;;;;;;;19.98;10.60;;;;;;;4.70;100.00;101968.59;5053395;28;20029;-77
2021/12/12 05:48:43;;;;;;;19.10;10.48;;;;;;;4.76;100.00;101988.13;5056808;28;20025;-75
2021/12/12 05:51:09;;;;;;;19.00;11.15;;;;;;;4.72;100.00;101976.25;5056670;28;20384;-77
2021/12/12 05:53:37;;;;;;;18.88;11.43;;;;;;;4.77;100.00;101979.56;5056291;28;20040;-81
2021/12/12 05:56:04;;;;;;;18.48;10.93;;;;;;;4.78;100.00;101982.09;5056715;28;20029;-76
2021/12/12 05:58:29;;;;;;;20.90;11.43;;;;;;;4.71;100.00;101967.72;5056491;28;20079;-80
2021/12/12 06:01:06;;;;;;;17.75;11.60;;;;;;;4.66;100.00;101958.47;5056549;28;20033;-79
2021/12/12 06:03:37;;;;;;;19.02;11.63;;;;;;;4.81;100.00;101978.63;5056270;28;20096;-81
2021/12/12 06:06:06;;;;;;;18.47;11.30;;;;;;;4.80;100.00;101974.38;5056197;28;20079;-81
2021/12/12 06:08:33;;;;;;;21.15;12.55;;;;;;;4.84;100.00;101987.09;5056195;28;20353;-81
2021/12/12 06:11:00;;;;;;;22.13;11.65;;;;;;;4.86;100.00;101995.59;5056032;28;20412;-81
2021/12/12 06:13:26;;;;;;;16.92;11.65;;;;;;;4.86;100.00;101995.59;5056408;28;20067;-77
2021/12/12 06:15:54;;;;;;;18.13;12.07;;;;;;;4.85;100.00;101991.34;5056168;28;20121;-81
2021/12/12 06:18:21;;;;;;;20.48;12.00;;;;;;;4.92;100.00;101998.88;5056097;28;20087;-81
2021/12/12 06:20:47;;;;;;;18.13;10.40;;;;;;;4.85;100.00;101983.66;5055712;28;20021;-81
2021/12/12 06:23:14;;;;;;;18.98;11.85;;;;;;;4.97;100.00;102000.47;5056085;28;20071;-80
2021/12/12 06:25:40;;;;;;;18.35;11.90;;;;;;;4.99;100.00;101995.31;5056134;28;20086;-80
2021/12/12 06:28:36;;;;;;;17.50;11.38;;;;;;;4.74;100.00;101949.78;5056003;28;20534;-82
2021/12/12 06:31:03;;;;;;;19.45;12.45;;;;;;;5.05;100.00;102003.72;4974932;28;20031;-80
2021/12/12 06:33:31;;;;;;;20.92;12.18;;;;;;;5.07;100.00;101999.41;4974928;28;20058;-77
2021/12/12 06:35:58;;;;;;;22.75;13.30;;;;;;;5.10;100.00;102004.44;4974766;28;20122;-79
2021/12/12 06:38:24;;;;;;;19.27;12.57;;;;;;;5.10;100.00;102003.59;4974682;28;20121;-77
2021/12/12 06:40:51;;;;;;;19.73;12.57;;;;;;;5.15;100.00;102005.22;4974849;28;20038;-82
2021/12/12 06:43:20;;;;;;;18.30;12.93;;;;;;;4.89;100.00;101958.84;4974916;28;20041;-79
2021/12/12 06:45:46;;;;;;;21.20;13.23;;;;;;;5.11;100.00;101992.50;4974756;28;20062;-77
2021/12/12 06:48:14;;;;;;;20.67;12.85;;;;;;;5.21;100.00;102000.81;4974566;28;20042;-82
2021/12/12 06:50:43;;;;;;;23.88;13.93;;;;;;;4.97;100.00;101962.06;4974647;28;20136;-79
2021/12/12 06:53:11;;;;;;;22.05;12.70;;;;;;;5.23;100.00;101999.94;4974445;28;20364;-81
2021/12/12 06:55:44;;;;;;;22.55;13.75;;;;;;;5.26;100.00;102007.53;4974661;28;20070;-81
2021/12/12 06:58:11;;;;;;;22.15;13.68;;;;;;;5.27;100.00;101998.97;4974529;28;20031;-81
2021/12/12 07:00:37;;;;;;;25.13;13.73;;;;;;;5.25;100.00;101997.31;4974329;28;20392;-83
2021/12/12 07:03:03;;;;;;;23.13;13.73;;;;;;;5.31;100.00;101998.03;4974172;28;20105;-80
2021/12/12 07:05:29;;;;;;;24.73;13.65;;;;;;;5.35;100.00;101991.97;4974389;28;20130;-77
2021/12/12 07:07:57;;;;;;;23.42;13.98;;;;;;;5.25;100.00;101975.13;5032608;28;20406;-79
2021/12/12 07:10:28;;;;;;;23.20;14.90;;;;;;;5.38;100.00;101980.81;5054943;28;20044;-80
2021/12/12 07:12:56;;;;;;;23.55;13.90;;;;;;;5.34;100.00;101982.59;5055103;28;20032;-80
2021/12/12 07:15:24;;;;;;;23.30;14.68;;;;;;;5.42;100.00;101992.69;5054976;28;20025;-81
2021/12/12 07:17:53;;;;;;;28.83;16.17;;;;;;;5.44;100.00;102003.72;5054838;28;20029;-79
2021/12/12 07:20:19;;;;;;;23.58;14.93;;;;;;;5.47;100.00;101998.53;5055038;28;20027;-78
2021/12/12 07:22:44;;;;;;;30.23;16.85;;;;;;;5.50;100.00;102005.28;5054985;28;20118;-80
2021/12/12 07:25:10;;;;;;;28.98;15.35;;;;;;;5.37;100.00;101984.25;5054623;28;20031;-76
2021/12/12 07:27:36;;;;;;;30.50;16.55;;;;;;;5.49;100.00;102004.44;5054795;28;20041;-77
2021/12/12 07:30:04;;;;;;;26.42;15.63;;;;;;;5.54;100.00;102009.47;5053185;28;20389;-79
2021/12/12 07:32:29;;;;;;;28.42;15.60;;;;;;;5.34;100.00;101971.50;5054683;28;20020;-77
2021/12/12 07:34:55;;;;;;;25.73;16.23;;;;;;;5.47;100.00;101993.41;5054833;28;20373;-76
2021/12/12 07:37:21;;;;;;;27.10;16.15;;;;;;;5.62;100.00;102021.25;5054626;28;20055;-81
2021/12/12 07:39:47;;;;;;;26.42;15.27;;;;;;;5.64;100.00;102016.06;5054460;28;20079;-75
2021/12/12 07:42:15;;;;;;;30.98;16.85;;;;;;;5.65;100.00;102018.59;5054781;28;20067;-81
2021/12/12 07:44:43;;;;;;;28.33;15.60;;;;;;;5.55;100.00;102004.31;5054395;28;20029;-80
2021/12/12 07:47:11;;;;;;;31.45;16.52;;;;;;;5.67;100.00;102019.41;5054586;28;20465;-76
2021/12/12 07:49:41;;;;;;;31.48;16.65;;;;;;;5.72;100.00;102034.69;5054387;28;20078;-81
2021/12/12 07:52:11;;;;;;;27.92;16.25;;;;;;;5.45;100.00;101975.50;5054338;28;20028;-77
2021/12/12 07:54:37;;;;;;;28.70;16.33;;;;;;;5.76;100.00;102026.03;5054207;28;20143;-75
2021/12/12 07:57:03;;;;;;;30.63;17.50;;;;;;;5.77;100.00;102025.16;5054252;28;20498;-79
2021/12/12 07:59:30;;;;;;;28.95;16.70;;;;;;;5.79;100.00;102031.06;5054032;28;20021;-75
2021/12/12 08:02:06;;;;;;;30.75;16.80;;;;;;;5.67;100.00;102010.88;5054503;28;20033;-78
2021/12/12 08:04:32;;;;;;;31.73;17.45;;;;;;;5.85;100.00;102032.66;5065005;28;20365;-81
2021/12/12 08:07:00;;;;;;;29.20;17.13;;;;;;;5.88;100.00;102032.56;5075004;28;20446;-76
2021/12/12 08:09:27;;;;;;;33.95;18.42;;;;;;;5.82;100.00;102027.63;5073539;28;20039;-75
2021/12/12 08:11:53;;;;;;;35.78;17.95;;;;;;;5.90;100.00;102044.53;5058195;28;20068;-76
2021/12/12 08:14:22;;;;;;;30.08;18.27;;;;;;;5.90;100.00;102048.75;5053601;28;20025;-77
2021/12/12 08:16:48;;;;;;;31.77;17.88;;;;;;;5.91;100.00;102051.34;5053819;28;20021;-76
2021/12/12 08:19:16;;;;;;;34.28;19.17;;;;;;;5.80;100.00;102037.91;5035743;28;20036;-78
2021/12/12 08:21:42;;;;;;;36.13;18.63;;;;;;;5.92;100.00;102053.03;5053750;28;20032;-79
2021/12/12 08:24:10;;;;;;;35.75;19.88;;;;;;;5.96;100.00;102058.91;5053472;28;20032;-75
2021/12/12 08:26:38;;;;;;;39.00;18.92;;;;;;;5.96;100.00;102072.56;5053334;28;20013;-81
2021/12/12 08:29:06;;;;;;;36.33;18.98;;;;;;;5.99;100.00;102071.66;5053454;28;20017;-77
2021/12/12 08:31:32;;;;;;;33.97;20.77;;;;;;;5.85;100.00;102040.34;5053736;28;20407;-81
2021/12/12 08:33:57;;;;;;;40.75;19.42;;;;;;;5.90;100.00;102053.88;5053455;28;20040;-81
2021/12/12 08:36:23;;;;;;;35.15;19.00;;;;;;;6.07;100.00;102079.16;5053586;28;20380;-78
2021/12/12 08:38:48;;;;;;;36.20;20.67;;;;;;;6.10;100.00;102076.53;5053354;28;20901;-80
2021/12/12 08:41:14;;;;;;;35.38;19.25;;;;;;;6.12;100.00;102079.91;5053393;28;20071;-79
2021/12/12 08:43:40;;;;;;;31.92;18.27;;;;;;;5.55;100.00;101985.53;5053266;28;20031;-81
2021/12/12 08:46:12;;;;;;;32.63;17.92;;;;;;;6.02;100.00;102066.47;5053364;28;20388;-78
2021/12/12 08:48:48;;;;;;;33.88;18.65;;;;;;;5.89;100.00;102040.22;5053201;28;20083;-78
2021/12/12 08:51:19;;;;;;;38.35;19.90;;;;;;;6.17;100.00;102075.50;5053383;28;20025;-79
2021/12/12 08:53:49;;;;;;;38.28;18.70;;;;;;;6.19;100.00;102077.13;5053221;28;20542;-86
2021/12/12 08:56:29;;;;;;;35.33;18.67;;;;;;;6.12;100.00;102074.78;5052661;28;20083;-81
2021/12/12 08:58:55;;;;;;;30.65;18.25;;;;;;;6.23;100.00;102085.63;5037562;28;20029;-80
2021/12/12 09:01:21;;;;;;;33.28;19.15;;;;;;;6.20;100.00;102083.13;5053148;28;20047;-81
2021/12/12 09:03:54;;;;;;;31.70;17.80;;;;;;;6.26;100.00;102095.78;5053163;28;20048;-80
2021/12/12 09:06:26;;;;;;;32.25;19.48;;;;;;;6.28;100.00;102092.28;5052726;28;20025;-80
2021/12/12 09:09:00;;;;;;;;;;;;;;;6.30;100.00;102097.41;5053180;28;20053;-80
2021/12/12 09:11:37;;;;;;;34.47;17.95;;;;;;;6.33;100.00;102102.47;5054988;28;19920;-82
2021/12/12 09:14:10;;;;;;;35.33;18.52;;;;;;;6.35;100.00;102102.41;5072826;28;20032;-81
2021/12/12 09:16:42;;;;;;;34.85;18.52;;;;;;;6.26;100.00;102095.78;5072908;28;20103;-79
2021/12/12 09:19:12;;;;;;;43.53;20.83;;;;;;;6.19;100.00;102081.41;5072774;28;20066;-81
2021/12/12 09:21:47;;;;;;;36.45;19.58;;;;;;;6.38;100.00;102110.03;5071908;28;20028;-79
2021/12/12 09:24:59;;;;;;;34.35;18.45;;;;;;;6.31;100.00;102106.78;5072924;28;20111;-81
2021/12/12 09:27:34;;;;;;;;;;;;;;;6.41;100.00;102121.06;4991441;28;20081;-80
2021/12/12 09:30:05;;;;;;;34.65;18.15;;;;;;;6.43;100.00;102131.28;4991084;28;19941;-80
2021/12/12 09:32:52;;;;;;;37.90;19.00;;;;;;;6.16;100.00;102084.06;4991238;28;20041;-79
2021/12/12 09:35:27;;;;;;;35.58;19.13;;;;;;;6.47;100.00;102130.31;4991525;28;20195;-80
2021/12/12 09:38:00;;;;;;;31.88;19.08;;;;;;;6.48;100.00;102134.56;4991077;28;20042;-81
2021/12/12 09:40:47;;;;;;;36.35;18.92;;;;;;;6.49;100.00;102129.44;4990911;28;20404;-78
2021/12/12 09:43:43;;;;;;;35.55;18.63;;;;;;;6.51;100.00;102143.06;4991345;28;20441;-77
2021/12/12 09:46:39;;;;;;;32.50;18.00;;;;;;;6.44;100.00;102118.44;4991343;28;20093;-81
2021/12/12 09:53:00;;;;;;;35.70;18.45;;;;;;;6.55;100.00;102138.69;4991357;28;20045;-80
2021/12/12 09:56:05;;;;;;;35.33;18.88;;;;;;;6.57;100.00;102139.47;4990940;28;20030;-82
2021/12/12 09:58:47;;;;;;;32.92;18.80;;;;;;;6.58;100.00;102136.88;4990979;28;20039;-81
2021/12/12 10:01:22;;;;;;;30.40;17.58;;;;;;;6.62;100.00;102137.66;4990942;28;20112;-81
2021/12/12 10:03:47;;;;;;;33.17;18.80;;;;;;;6.64;100.00;102135.88;5019289;28;20048;-81
2021/12/12 10:06:51;;;;;;;34.42;18.58;;;;;;;6.66;100.00;102136.69;5072391;28;20472;-81
2021/12/12 10:09:22;;;;;;;36.28;18.73;;;;;;;6.67;100.00;102135.78;5072368;28;20028;-81
2021/12/12 10:12:10;;;;;;;31.52;17.67;;;;;;;6.66;100.00;102133.28;5061130;28;20132;-80
2021/12/12 10:14:47;;;;;;;34.25;18.77;;;;;;;6.73;100.00;102134.81;5052163;28;20025;-80
2021/12/12 10:17:22;;;;;;;37.83;19.30;;;;;;;6.42;100.00;102073.16;5052089;28;20491;-81
2021/12/12 10:20:23;;;;;;;36.05;18.88;;;;;;;6.63;100.00;102100.00;5052128;28;20392;-80
2021/12/12 10:23:09;;;;;;;37.63;17.48;;;;;;;6.83;100.00;102141.38;5048858;28;20072;-79
2021/12/12 10:26:07;;;;;;;31.35;17.63;;;;;;;6.77;100.00;102124.41;5051921;28;20036;-80
2021/12/12 10:28:49;;;;;;;33.83;17.48;;;;;;;6.88;100.00;102137.81;5051852;28;20409;-81
2021/12/12 10:31:29;;;;;;;36.00;17.67;;;;;;;6.89;100.00;102136.09;5052317;28;20029;-81
2021/12/12 10:34:03;;;;;;;32.33;18.00;;;;;;;6.93;100.00;102139.41;5055308;28;20028;-80
2021/12/12 10:36:45;;;;;;;32.30;17.27;;;;;;;6.79;100.00;102120.09;5055588;28;20024;-79
2021/12/12 10:39:21;;;;;;;34.33;18.70;;;;;;;6.95;100.00;102137.66;5055595;28;20388;-81
2021/12/12 10:41:54;;;;;;;36.60;18.90;;;;;;;6.78;100.00;102114.97;5055590;28;20067;-80
2021/12/12 10:44:23;;;;;;;32.40;17.27;;;;;;;7.03;100.00;102141.69;5055638;28;20025;-78
2021/12/12 10:47:04;;;;;;;34.33;17.98;;;;;;;6.84;100.00;102107.13;5055495;28;20430;-77
2021/12/12 10:49:48;;;;;;;35.43;18.17;;;;;;;7.07;100.00;102137.31;5055514;28;20021;-80
2021/12/12 10:52:25;;;;;;;34.83;18.45;;;;;;;7.02;100.00;102127.16;5055554;28;20029;-78
2021/12/12 10:54:59;;;;;;;30.77;17.48;;;;;;;7.12;100.00;102136.31;5055371;28;20017;-80
2021/12/12 10:57:34;;;;;;;32.95;17.75;;;;;;;6.99;100.00;102116.16;5055082;28;20032;-79
2021/12/12 11:00:07;;;;;;;35.60;18.73;;;;;;;7.00;100.00;102113.53;5055027;28;20025;-79
2021/12/12 11:02:42;;;;;;;32.00;18.58;;;;;;;7.21;100.00;102132.66;5054887;28;20033;-79
2021/12/12 11:05:18;;;;;;;31.20;18.02;;;;;;;7.26;100.00;102133.34;5054999;28;20504;-77
2021/12/12 11:07:48;;;;;;;31.27;17.45;;;;;;;7.11;100.00;102101.22;5054966;28;20833;-78
2021/12/12 11:10:28;;;;;;;27.73;16.75;;;;;;;7.36;100.00;102134.75;5054985;28;20028;-79
2021/12/12 11:13:01;;;;;;;31.98;17.67;;;;;;;7.42;100.00;102129.47;5054413;28;20071;-76
2021/12/12 11:15:57;;;;;;;31.77;18.25;;;;;;;7.42;100.00;102137.16;5054627;28;20021;-79
2021/12/12 11:18:48;;;;;;;29.65;16.25;;;;;;;7.38;100.00;102124.47;5054809;28;20025;-77
2021/12/12 11:21:26;;;;;;;30.13;17.38;;;;;;;7.26;100.00;102110.22;5054706;28;20025;-77
2021/12/12 11:24:02;;;;;;;28.33;16.02;;;;;;;7.41;100.00;102129.50;5054684;28;20040;-80
2021/12/12 11:26:27;;;;;;;28.17;16.83;;;;;;;7.40;100.00;102133.81;5054369;28;20496;-79
2021/12/12 11:28:59;;;;;;;29.02;16.77;;;;;;;7.43;100.00;102127.72;5054540;28;20067;-79
2021/12/12 11:31:35;;;;;;;28.33;17.35;;;;;;;7.36;100.00;102119.34;5054481;28;20790;-79
2021/12/12 11:34:03;;;;;;;29.40;17.63;;;;;;;7.44;100.00;102131.97;5054307;28;20071;-77
2021/12/12 11:36:37;;;;;;;29.70;17.00;;;;;;;7.49;100.00;102132.69;5054372;28;20061;-78
2021/12/12 11:39:17;;;;;;;27.85;16.65;;;;;;;7.35;100.00;102104.81;5054584;28;20086;-77
2021/12/12 11:41:56;;;;;;;27.98;16.13;;;;;;;7.52;100.00;102140.31;5054243;28;20045;-77
2021/12/12 11:44:36;;;;;;;28.13;15.93;;;;;;;7.39;100.00;102109.00;5053094;28;20021;-78
2021/12/12 11:47:11;;;;;;;26.92;16.38;;;;;;;7.51;100.00;102130.09;5054292;28;20029;-79
2021/12/12 11:49:56;;;;;;;24.40;15.30;;;;;;;7.34;100.00;102107.44;5054449;28;20025;-78
2021/12/12 11:52:34;;;;;;;29.35;15.52;;;;;;;7.46;100.00;102125.91;5054342;28;20033;-76